sensor_id;sensor_type;location;lat;lon;timestamp;P1;durP1;ratioP1;P2;durP2;ratioP2
13487;SDS011;6816;48.506;9.050;2024-02-15T00:00:07;2.80;;;1.63;;
13487;SDS011;6816;48.506;9.050;2024-02-15T00:03:08;1.93;;;1.63;;
13487;SDS011;6816;48.506;9.050;2024-02-15T00:06:13;3.93;;;2.10;;
13487;SDS011;6816;48.506;9.050;2024-02-15T00:09:13;2.53;;;2.00;;
13487;SDS011;6816;48.506;9.050;2024-02-15T00:12:14;2.47;;;2.07;;
13487;SDS011;6816;48.506;9.050;2024-02-15T00:15:15;2.57;;;1.93;;
13487;SDS011;6816;48.506;9.050;2024-02-15T00:18:15;4.53;;;1.93;;
13487;SDS011;6816;48.506;9.050;2024-02-15T00:21:16;2.50;;;2.07;;
13487;SDS011;6816;48.506;9.050;2024-02-15T00:24:16;2.33;;;1.97;;
13487;SDS011;6816;48.506;9.050;2024-02-15T00:27:17;2.20;;;2.00;;
13487;SDS011;6816;48.506;9.050;2024-02-15T00:30:18;2.50;;;2.23;;
13487;SDS011;6816;48.506;9.050;2024-02-15T00:33:18;2.40;;;1.80;;
13487;SDS011;6816;48.506;9.050;2024-02-15T00:36:19;3.27;;;2.10;;
13487;SDS011;6816;48.506;9.050;2024-02-15T00:39:20;2.07;;;1.87;;
13487;SDS011;6816;48.506;9.050;2024-02-15T00:42:21;3.00;;;1.90;;
13487;SDS011;6816;48.506;9.050;2024-02-15T00:45:21;2.27;;;1.57;;
13487;SDS011;6816;48.506;9.050;2024-02-15T00:48:22;2.53;;;2.03;;
13487;SDS011;6816;48.506;9.050;2024-02-15T00:51:26;3.30;;;1.97;;
13487;SDS011;6816;48.506;9.050;2024-02-15T00:54:26;3.67;;;2.00;;
13487;SDS011;6816;48.506;9.050;2024-02-15T00:57:27;2.33;;;2.00;;
13487;SDS011;6816;48.506;9.050;2024-02-15T01:00:28;2.40;;;1.83;;
13487;SDS011;6816;48.506;9.050;2024-02-15T01:03:28;3.20;;;1.97;;
13487;SDS011;6816;48.506;9.050;2024-02-15T01:06:29;2.53;;;1.80;;
13487;SDS011;6816;48.506;9.050;2024-02-15T01:09:29;1.67;;;1.50;;
13487;SDS011;6816;48.506;9.050;2024-02-15T01:12:30;2.10;;;1.60;;
13487;SDS011;6816;48.506;9.050;2024-02-15T01:15:31;2.10;;;1.70;;
13487;SDS011;6816;48.506;9.050;2024-02-15T01:18:32;2.73;;;1.50;;
13487;SDS011;6816;48.506;9.050;2024-02-15T01:21:32;2.57;;;1.97;;
13487;SDS011;6816;48.506;9.050;2024-02-15T01:24:33;2.37;;;1.80;;
13487;SDS011;6816;48.506;9.050;2024-02-15T01:27:33;2.03;;;1.80;;
13487;SDS011;6816;48.506;9.050;2024-02-15T01:30:34;1.70;;;1.60;;
13487;SDS011;6816;48.506;9.050;2024-02-15T01:33:35;2.40;;;2.20;;
13487;SDS011;6816;48.506;9.050;2024-02-15T01:36:36;1.93;;;1.73;;
13487;SDS011;6816;48.506;9.050;2024-02-15T01:39:37;2.70;;;1.77;;
13487;SDS011;6816;48.506;9.050;2024-02-15T01:42:37;2.40;;;1.50;;
13487;SDS011;6816;48.506;9.050;2024-02-15T01:45:38;3.30;;;1.57;;
13487;SDS011;6816;48.506;9.050;2024-02-15T01:48:39;3.10;;;1.50;;
13487;SDS011;6816;48.506;9.050;2024-02-15T01:51:41;1.83;;;1.70;;
13487;SDS011;6816;48.506;9.050;2024-02-15T01:54:43;2.03;;;1.70;;
13487;SDS011;6816;48.506;9.050;2024-02-15T01:57:45;2.83;;;1.60;;
13487;SDS011;6816;48.506;9.050;2024-02-15T02:00:48;2.70;;;1.60;;
13487;SDS011;6816;48.506;9.050;2024-02-15T02:03:48;2.60;;;1.37;;
13487;SDS011;6816;48.506;9.050;2024-02-15T02:06:49;1.90;;;1.33;;
13487;SDS011;6816;48.506;9.050;2024-02-15T02:09:50;1.93;;;1.40;;
13487;SDS011;6816;48.506;9.050;2024-02-15T02:12:51;2.80;;;1.83;;
13487;SDS011;6816;48.506;9.050;2024-02-15T02:15:52;2.97;;;1.67;;
13487;SDS011;6816;48.506;9.050;2024-02-15T02:18:53;3.50;;;1.50;;
13487;SDS011;6816;48.506;9.050;2024-02-15T02:21:56;1.70;;;1.30;;
13487;SDS011;6816;48.506;9.050;2024-02-15T02:25:06;2.67;;;1.70;;
13487;SDS011;6816;48.506;9.050;2024-02-15T02:28:10;2.27;;;1.57;;
13487;SDS011;6816;48.506;9.050;2024-02-15T02:31:11;2.57;;;1.80;;
13487;SDS011;6816;48.506;9.050;2024-02-15T02:34:12;1.63;;;1.47;;
13487;SDS011;6816;48.506;9.050;2024-02-15T02:37:14;1.83;;;1.33;;
13487;SDS011;6816;48.506;9.050;2024-02-15T02:40:15;3.77;;;1.60;;
13487;SDS011;6816;48.506;9.050;2024-02-15T02:43:16;1.90;;;1.47;;
13487;SDS011;6816;48.506;9.050;2024-02-15T02:46:16;2.30;;;1.53;;
13487;SDS011;6816;48.506;9.050;2024-02-15T02:49:17;1.57;;;1.33;;
13487;SDS011;6816;48.506;9.050;2024-02-15T02:52:17;2.50;;;1.70;;
13487;SDS011;6816;48.506;9.050;2024-02-15T02:55:18;1.97;;;1.50;;
13487;SDS011;6816;48.506;9.050;2024-02-15T02:58:19;1.93;;;1.60;;
13487;SDS011;6816;48.506;9.050;2024-02-15T03:01:22;1.87;;;1.40;;
13487;SDS011;6816;48.506;9.050;2024-02-15T03:04:25;1.73;;;1.40;;
13487;SDS011;6816;48.506;9.050;2024-02-15T03:07:25;1.67;;;1.20;;
13487;SDS011;6816;48.506;9.050;2024-02-15T03:10:26;3.23;;;1.20;;
13487;SDS011;6816;48.506;9.050;2024-02-15T03:13:27;0.97;;;0.97;;
13487;SDS011;6816;48.506;9.050;2024-02-15T03:16:27;1.43;;;1.10;;
13487;SDS011;6816;48.506;9.050;2024-02-15T03:19:29;1.17;;;1.03;;
13487;SDS011;6816;48.506;9.050;2024-02-15T03:22:30;1.23;;;0.97;;
13487;SDS011;6816;48.506;9.050;2024-02-15T03:25:32;1.20;;;1.00;;
13487;SDS011;6816;48.506;9.050;2024-02-15T03:28:34;1.33;;;1.17;;
13487;SDS011;6816;48.506;9.050;2024-02-15T03:31:37;2.17;;;1.30;;
13487;SDS011;6816;48.506;9.050;2024-02-15T03:34:38;1.63;;;1.30;;
13487;SDS011;6816;48.506;9.050;2024-02-15T03:37:39;1.80;;;1.57;;
13487;SDS011;6816;48.506;9.050;2024-02-15T03:40:41;1.37;;;1.00;;
13487;SDS011;6816;48.506;9.050;2024-02-15T03:43:41;1.23;;;1.10;;
13487;SDS011;6816;48.506;9.050;2024-02-15T03:46:42;1.33;;;1.23;;
13487;SDS011;6816;48.506;9.050;2024-02-15T03:49:43;1.07;;;1.00;;
13487;SDS011;6816;48.506;9.050;2024-02-15T03:52:43;1.20;;;1.00;;
13487;SDS011;6816;48.506;9.050;2024-02-15T03:55:45;1.23;;;0.93;;
13487;SDS011;6816;48.506;9.050;2024-02-15T03:58:45;1.50;;;0.90;;
13487;SDS011;6816;48.506;9.050;2024-02-15T04:01:46;1.23;;;1.00;;
13487;SDS011;6816;48.506;9.050;2024-02-15T04:04:47;1.30;;;0.93;;
13487;SDS011;6816;48.506;9.050;2024-02-15T04:07:47;0.97;;;0.90;;
13487;SDS011;6816;48.506;9.050;2024-02-15T04:10:48;1.03;;;0.90;;
13487;SDS011;6816;48.506;9.050;2024-02-15T04:13:49;1.30;;;0.80;;
13487;SDS011;6816;48.506;9.050;2024-02-15T04:16:49;1.07;;;0.90;;
13487;SDS011;6816;48.506;9.050;2024-02-15T04:19:50;1.00;;;0.90;;
13487;SDS011;6816;48.506;9.050;2024-02-15T04:22:50;1.00;;;0.90;;
13487;SDS011;6816;48.506;9.050;2024-02-15T04:25:51;0.77;;;0.60;;
13487;SDS011;6816;48.506;9.050;2024-02-15T04:28:52;1.07;;;0.47;;
13487;SDS011;6816;48.506;9.050;2024-02-15T04:31:53;0.70;;;0.70;;
13487;SDS011;6816;48.506;9.050;2024-02-15T04:34:54;0.57;;;0.50;;
13487;SDS011;6816;48.506;9.050;2024-02-15T04:37:55;0.60;;;0.60;;
13487;SDS011;6816;48.506;9.050;2024-02-15T04:40:56;0.90;;;0.80;;
13487;SDS011;6816;48.506;9.050;2024-02-15T04:43:57;1.17;;;0.60;;
13487;SDS011;6816;48.506;9.050;2024-02-15T04:46:58;1.33;;;0.77;;
13487;SDS011;6816;48.506;9.050;2024-02-15T04:49:58;1.40;;;0.70;;
13487;SDS011;6816;48.506;9.050;2024-02-15T04:52:59;1.00;;;0.90;;
13487;SDS011;6816;48.506;9.050;2024-02-15T04:56:00;1.00;;;0.90;;
13487;SDS011;6816;48.506;9.050;2024-02-15T04:59:01;2.40;;;0.77;;
13487;SDS011;6816;48.506;9.050;2024-02-15T05:02:02;1.13;;;0.83;;
13487;SDS011;6816;48.506;9.050;2024-02-15T05:05:02;1.30;;;1.00;;
13487;SDS011;6816;48.506;9.050;2024-02-15T05:08:04;1.90;;;1.30;;
13487;SDS011;6816;48.506;9.050;2024-02-15T05:11:05;1.67;;;1.10;;
13487;SDS011;6816;48.506;9.050;2024-02-15T05:14:07;1.23;;;0.93;;
13487;SDS011;6816;48.506;9.050;2024-02-15T05:17:08;1.60;;;1.03;;
13487;SDS011;6816;48.506;9.050;2024-02-15T05:20:11;2.33;;;1.50;;
13487;SDS011;6816;48.506;9.050;2024-02-15T05:23:13;1.67;;;1.30;;
13487;SDS011;6816;48.506;9.050;2024-02-15T05:26:14;1.70;;;1.17;;
13487;SDS011;6816;48.506;9.050;2024-02-15T05:29:20;1.83;;;1.23;;
13487;SDS011;6816;48.506;9.050;2024-02-15T05:32:23;3.87;;;1.23;;
13487;SDS011;6816;48.506;9.050;2024-02-15T05:35:26;1.17;;;1.00;;
13487;SDS011;6816;48.506;9.050;2024-02-15T05:38:28;2.17;;;1.57;;
13487;SDS011;6816;48.506;9.050;2024-02-15T05:41:28;2.27;;;1.50;;
13487;SDS011;6816;48.506;9.050;2024-02-15T05:44:29;2.53;;;1.43;;
13487;SDS011;6816;48.506;9.050;2024-02-15T05:47:30;3.37;;;1.20;;
13487;SDS011;6816;48.506;9.050;2024-02-15T05:50:30;1.13;;;1.00;;
13487;SDS011;6816;48.506;9.050;2024-02-15T05:53:31;4.00;;;1.40;;
13487;SDS011;6816;48.506;9.050;2024-02-15T05:56:38;2.00;;;1.07;;
13487;SDS011;6816;48.506;9.050;2024-02-15T05:59:39;3.37;;;1.40;;
13487;SDS011;6816;48.506;9.050;2024-02-15T06:02:40;1.60;;;1.10;;
13487;SDS011;6816;48.506;9.050;2024-02-15T06:05:41;1.17;;;0.83;;
13487;SDS011;6816;48.506;9.050;2024-02-15T06:08:45;1.20;;;0.60;;
13487;SDS011;6816;48.506;9.050;2024-02-15T06:11:47;1.73;;;0.90;;
13487;SDS011;6816;48.506;9.050;2024-02-15T06:14:47;0.80;;;0.70;;
13487;SDS011;6816;48.506;9.050;2024-02-15T06:17:48;2.47;;;1.07;;
13487;SDS011;6816;48.506;9.050;2024-02-15T06:20:49;0.80;;;0.70;;
13487;SDS011;6816;48.506;9.050;2024-02-15T06:23:53;1.17;;;1.07;;
13487;SDS011;6816;48.506;9.050;2024-02-15T06:26:53;0.90;;;0.90;;
13487;SDS011;6816;48.506;9.050;2024-02-15T06:29:59;1.97;;;1.40;;
13487;SDS011;6816;48.506;9.050;2024-02-15T06:33:18;1.53;;;1.00;;
13487;SDS011;6816;48.506;9.050;2024-02-15T06:36:45;1.50;;;0.90;;
13487;SDS011;6816;48.506;9.050;2024-02-15T06:40:05;1.37;;;1.10;;
13487;SDS011;6816;48.506;9.050;2024-02-15T06:43:06;1.17;;;0.90;;
13487;SDS011;6816;48.506;9.050;2024-02-15T06:46:08;2.40;;;1.50;;
13487;SDS011;6816;48.506;9.050;2024-02-15T06:49:10;3.73;;;1.30;;
13487;SDS011;6816;48.506;9.050;2024-02-15T06:52:11;1.10;;;0.90;;
13487;SDS011;6816;48.506;9.050;2024-02-15T06:55:12;1.60;;;0.97;;
13487;SDS011;6816;48.506;9.050;2024-02-15T06:58:15;2.50;;;1.23;;
13487;SDS011;6816;48.506;9.050;2024-02-15T07:01:16;1.27;;;1.10;;
13487;SDS011;6816;48.506;9.050;2024-02-15T07:04:18;2.13;;;1.40;;
13487;SDS011;6816;48.506;9.050;2024-02-15T07:07:19;1.33;;;1.23;;
13487;SDS011;6816;48.506;9.050;2024-02-15T07:10:19;4.13;;;1.30;;
13487;SDS011;6816;48.506;9.050;2024-02-15T07:13:21;1.40;;;1.30;;
13487;SDS011;6816;48.506;9.050;2024-02-15T07:16:22;1.70;;;1.33;;
13487;SDS011;6816;48.506;9.050;2024-02-15T07:19:23;1.60;;;1.40;;
13487;SDS011;6816;48.506;9.050;2024-02-15T07:22:24;2.10;;;1.50;;
13487;SDS011;6816;48.506;9.050;2024-02-15T07:25:24;1.53;;;1.20;;
13487;SDS011;6816;48.506;9.050;2024-02-15T07:28:25;1.50;;;1.33;;
13487;SDS011;6816;48.506;9.050;2024-02-15T07:31:29;3.67;;;1.50;;
13487;SDS011;6816;48.506;9.050;2024-02-15T07:34:32;2.63;;;1.90;;
13487;SDS011;6816;48.506;9.050;2024-02-15T07:37:34;3.07;;;1.90;;
13487;SDS011;6816;48.506;9.050;2024-02-15T07:40:35;4.23;;;1.60;;
13487;SDS011;6816;48.506;9.050;2024-02-15T07:43:35;2.10;;;1.90;;
13487;SDS011;6816;48.506;9.050;2024-02-15T07:46:36;2.90;;;1.77;;
13487;SDS011;6816;48.506;9.050;2024-02-15T07:49:38;2.30;;;1.97;;
13487;SDS011;6816;48.506;9.050;2024-02-15T07:52:39;2.27;;;1.73;;
13487;SDS011;6816;48.506;9.050;2024-02-15T07:55:41;2.20;;;1.80;;
13487;SDS011;6816;48.506;9.050;2024-02-15T07:58:42;4.57;;;1.97;;
13487;SDS011;6816;48.506;9.050;2024-02-15T08:01:47;2.20;;;1.90;;
13487;SDS011;6816;48.506;9.050;2024-02-15T08:04:50;2.57;;;1.83;;
13487;SDS011;6816;48.506;9.050;2024-02-15T08:07:51;2.90;;;2.13;;
13487;SDS011;6816;48.506;9.050;2024-02-15T08:10:57;2.10;;;1.80;;
13487;SDS011;6816;48.506;9.050;2024-02-15T08:13:57;1.80;;;1.60;;
13487;SDS011;6816;48.506;9.050;2024-02-15T08:17:01;1.87;;;1.73;;
13487;SDS011;6816;48.506;9.050;2024-02-15T08:20:03;2.40;;;1.73;;
13487;SDS011;6816;48.506;9.050;2024-02-15T08:23:07;1.83;;;1.73;;
13487;SDS011;6816;48.506;9.050;2024-02-15T08:26:10;2.60;;;1.90;;
13487;SDS011;6816;48.506;9.050;2024-02-15T08:29:11;2.20;;;2.00;;
13487;SDS011;6816;48.506;9.050;2024-02-15T08:32:13;2.07;;;1.70;;
13487;SDS011;6816;48.506;9.050;2024-02-15T08:35:14;2.20;;;1.90;;
13487;SDS011;6816;48.506;9.050;2024-02-15T08:38:15;2.43;;;1.77;;
13487;SDS011;6816;48.506;9.050;2024-02-15T08:41:17;3.03;;;2.10;;
13487;SDS011;6816;48.506;9.050;2024-02-15T08:44:26;2.40;;;1.83;;
13487;SDS011;6816;48.506;9.050;2024-02-15T08:47:27;2.00;;;1.77;;
13487;SDS011;6816;48.506;9.050;2024-02-15T08:50:27;2.20;;;2.00;;
13487;SDS011;6816;48.506;9.050;2024-02-15T08:53:28;2.80;;;2.10;;
13487;SDS011;6816;48.506;9.050;2024-02-15T08:56:28;2.60;;;2.13;;
13487;SDS011;6816;48.506;9.050;2024-02-15T08:59:29;2.23;;;2.03;;
13487;SDS011;6816;48.506;9.050;2024-02-15T09:02:29;2.93;;;2.40;;
13487;SDS011;6816;48.506;9.050;2024-02-15T09:05:30;3.03;;;2.30;;
13487;SDS011;6816;48.506;9.050;2024-02-15T09:08:31;2.37;;;2.17;;
13487;SDS011;6816;48.506;9.050;2024-02-15T09:11:31;2.83;;;2.53;;
13487;SDS011;6816;48.506;9.050;2024-02-15T09:14:32;2.90;;;2.63;;
13487;SDS011;6816;48.506;9.050;2024-02-15T09:17:37;4.00;;;2.70;;
13487;SDS011;6816;48.506;9.050;2024-02-15T09:20:38;3.40;;;2.53;;
13487;SDS011;6816;48.506;9.050;2024-02-15T09:23:44;5.40;;;2.80;;
13487;SDS011;6816;48.506;9.050;2024-02-15T09:26:45;4.47;;;2.80;;
13487;SDS011;6816;48.506;9.050;2024-02-15T09:29:45;4.50;;;2.93;;
13487;SDS011;6816;48.506;9.050;2024-02-15T09:32:46;3.23;;;2.77;;
13487;SDS011;6816;48.506;9.050;2024-02-15T09:35:46;3.50;;;3.20;;
13487;SDS011;6816;48.506;9.050;2024-02-15T09:38:48;2.80;;;2.53;;
13487;SDS011;6816;48.506;9.050;2024-02-15T09:41:48;3.10;;;2.53;;
13487;SDS011;6816;48.506;9.050;2024-02-15T09:44:55;3.00;;;2.70;;
13487;SDS011;6816;48.506;9.050;2024-02-15T09:47:56;3.10;;;2.80;;
13487;SDS011;6816;48.506;9.050;2024-02-15T09:51:01;3.30;;;2.63;;
13487;SDS011;6816;48.506;9.050;2024-02-15T09:54:03;5.67;;;3.03;;
13487;SDS011;6816;48.506;9.050;2024-02-15T09:57:05;3.50;;;2.40;;
13487;SDS011;6816;48.506;9.050;2024-02-15T10:00:07;2.53;;;2.33;;
13487;SDS011;6816;48.506;9.050;2024-02-15T10:03:08;3.43;;;2.60;;
13487;SDS011;6816;48.506;9.050;2024-02-15T10:06:12;5.53;;;2.70;;
13487;SDS011;6816;48.506;9.050;2024-02-15T10:09:22;3.47;;;2.30;;
13487;SDS011;6816;48.506;9.050;2024-02-15T10:12:31;4.53;;;2.20;;
13487;SDS011;6816;48.506;9.050;2024-02-15T10:15:39;2.90;;;2.60;;
13487;SDS011;6816;48.506;9.050;2024-02-15T10:18:45;3.93;;;2.23;;
13487;SDS011;6816;48.506;9.050;2024-02-15T10:21:47;4.03;;;2.50;;
13487;SDS011;6816;48.506;9.050;2024-02-15T10:24:48;3.83;;;2.57;;
13487;SDS011;6816;48.506;9.050;2024-02-15T10:27:49;3.40;;;2.47;;
13487;SDS011;6816;48.506;9.050;2024-02-15T10:30:50;3.53;;;2.67;;
13487;SDS011;6816;48.506;9.050;2024-02-15T10:33:52;3.17;;;2.70;;
13487;SDS011;6816;48.506;9.050;2024-02-15T10:36:53;6.57;;;3.00;;
13487;SDS011;6816;48.506;9.050;2024-02-15T10:40:05;4.30;;;2.57;;
13487;SDS011;6816;48.506;9.050;2024-02-15T10:43:10;2.77;;;2.40;;
13487;SDS011;6816;48.506;9.050;2024-02-15T10:46:13;4.37;;;2.77;;
13487;SDS011;6816;48.506;9.050;2024-02-15T10:49:14;3.20;;;2.60;;
13487;SDS011;6816;48.506;9.050;2024-02-15T10:52:15;2.40;;;2.20;;
13487;SDS011;6816;48.506;9.050;2024-02-15T10:55:20;2.60;;;2.40;;
13487;SDS011;6816;48.506;9.050;2024-02-15T10:58:31;3.80;;;2.80;;
13487;SDS011;6816;48.506;9.050;2024-02-15T11:01:38;2.50;;;2.17;;
13487;SDS011;6816;48.506;9.050;2024-02-15T11:04:40;2.40;;;2.20;;
13487;SDS011;6816;48.506;9.050;2024-02-15T11:07:43;3.57;;;2.40;;
13487;SDS011;6816;48.506;9.050;2024-02-15T11:10:44;2.80;;;2.23;;
13487;SDS011;6816;48.506;9.050;2024-02-15T11:13:48;2.43;;;2.03;;
13487;SDS011;6816;48.506;9.050;2024-02-15T11:16:49;4.23;;;2.20;;
13487;SDS011;6816;48.506;9.050;2024-02-15T11:19:50;2.53;;;2.10;;
13487;SDS011;6816;48.506;9.050;2024-02-15T11:22:56;3.53;;;2.35;;
13487;SDS011;6816;48.506;9.050;2024-02-15T11:25:59;2.38;;;1.90;;
13487;SDS011;6816;48.506;9.050;2024-02-15T11:29:00;1.80;;;1.65;;
13487;SDS011;6816;48.506;9.050;2024-02-15T11:32:01;3.40;;;1.73;;
13487;SDS011;6816;48.506;9.050;2024-02-15T11:38:11;2.33;;;1.70;;
13487;SDS011;6816;48.506;9.050;2024-02-15T11:41:28;1.65;;;1.50;;
13487;SDS011;6816;48.506;9.050;2024-02-15T11:44:29;1.95;;;1.63;;
13487;SDS011;6816;48.506;9.050;2024-02-15T11:47:32;2.22;;;1.42;;
13487;SDS011;6816;48.506;9.050;2024-02-15T11:50:36;2.75;;;1.77;;
13487;SDS011;6816;48.506;9.050;2024-02-15T11:53:40;2.20;;;2.00;;
13487;SDS011;6816;48.506;9.050;2024-02-15T11:59:47;1.60;;;1.38;;
13487;SDS011;6816;48.506;9.050;2024-02-15T12:03:14;2.60;;;1.50;;
13487;SDS011;6816;48.506;9.050;2024-02-15T12:06:34;1.88;;;0.95;;
13487;SDS011;6816;48.506;9.050;2024-02-15T12:09:58;2.00;;;1.25;;
13487;SDS011;6816;48.506;9.050;2024-02-15T12:13:18;1.77;;;1.08;;
13487;SDS011;6816;48.506;9.050;2024-02-15T12:17:01;2.08;;;1.42;;
13487;SDS011;6816;48.506;9.050;2024-02-15T12:20:21;2.63;;;0.98;;
13487;SDS011;6816;48.506;9.050;2024-02-15T12:23:24;1.70;;;1.05;;
13487;SDS011;6816;48.506;9.050;2024-02-15T12:26:26;1.70;;;1.05;;
13487;SDS011;6816;48.506;9.050;2024-02-15T12:29:28;0.80;;;0.80;;
13487;SDS011;6816;48.506;9.050;2024-02-15T12:32:29;1.65;;;1.23;;
13487;SDS011;6816;48.506;9.050;2024-02-15T12:35:31;1.60;;;1.17;;
13487;SDS011;6816;48.506;9.050;2024-02-15T12:38:32;1.63;;;1.08;;
13487;SDS011;6816;48.506;9.050;2024-02-15T12:41:34;1.33;;;0.90;;
13487;SDS011;6816;48.506;9.050;2024-02-15T12:44:35;1.55;;;0.80;;
13487;SDS011;6816;48.506;9.050;2024-02-15T12:47:36;1.48;;;0.90;;
13487;SDS011;6816;48.506;9.050;2024-02-15T12:50:37;0.95;;;0.88;;
13487;SDS011;6816;48.506;9.050;2024-02-15T12:53:38;1.10;;;1.00;;
13487;SDS011;6816;48.506;9.050;2024-02-15T12:56:39;1.58;;;0.85;;
13487;SDS011;6816;48.506;9.050;2024-02-15T12:59:39;1.50;;;0.98;;
13487;SDS011;6816;48.506;9.050;2024-02-15T13:02:42;1.27;;;0.95;;
13487;SDS011;6816;48.506;9.050;2024-02-15T13:05:43;3.53;;;0.98;;
13487;SDS011;6816;48.506;9.050;2024-02-15T13:08:43;2.00;;;0.80;;
13487;SDS011;6816;48.506;9.050;2024-02-15T13:11:48;0.85;;;0.85;;
13487;SDS011;6816;48.506;9.050;2024-02-15T13:14:50;1.40;;;0.98;;
13487;SDS011;6816;48.506;9.050;2024-02-15T13:17:50;2.22;;;1.20;;
13487;SDS011;6816;48.506;9.050;2024-02-15T13:20:51;1.67;;;1.00;;
13487;SDS011;6816;48.506;9.050;2024-02-15T13:23:52;1.00;;;0.90;;
13487;SDS011;6816;48.506;9.050;2024-02-15T13:26:53;0.88;;;0.80;;
13487;SDS011;6816;48.506;9.050;2024-02-15T13:29:53;2.13;;;1.05;;
13487;SDS011;6816;48.506;9.050;2024-02-15T13:32:54;1.23;;;1.10;;
13487;SDS011;6816;48.506;9.050;2024-02-15T13:35:55;1.63;;;0.90;;
13487;SDS011;6816;48.506;9.050;2024-02-15T13:38:55;2.78;;;1.00;;
13487;SDS011;6816;48.506;9.050;2024-02-15T13:41:56;2.72;;;1.00;;
13487;SDS011;6816;48.506;9.050;2024-02-15T13:44:57;1.33;;;1.00;;
13487;SDS011;6816;48.506;9.050;2024-02-15T13:48:00;1.85;;;1.10;;
13487;SDS011;6816;48.506;9.050;2024-02-15T13:51:04;1.20;;;0.85;;
13487;SDS011;6816;48.506;9.050;2024-02-15T13:54:09;1.83;;;1.00;;
13487;SDS011;6816;48.506;9.050;2024-02-15T13:57:09;2.55;;;1.10;;
13487;SDS011;6816;48.506;9.050;2024-02-15T14:00:11;3.22;;;1.23;;
13487;SDS011;6816;48.506;9.050;2024-02-15T14:03:21;1.20;;;1.10;;
13487;SDS011;6816;48.506;9.050;2024-02-15T14:06:21;1.65;;;1.20;;
13487;SDS011;6816;48.506;9.050;2024-02-15T14:09:23;1.33;;;1.00;;
13487;SDS011;6816;48.506;9.050;2024-02-15T14:12:26;2.33;;;1.30;;
13487;SDS011;6816;48.506;9.050;2024-02-15T14:15:26;2.20;;;1.40;;
13487;SDS011;6816;48.506;9.050;2024-02-15T14:18:27;1.50;;;1.20;;
13487;SDS011;6816;48.506;9.050;2024-02-15T14:21:29;1.65;;;1.13;;
13487;SDS011;6816;48.506;9.050;2024-02-15T14:24:32;1.33;;;0.90;;
13487;SDS011;6816;48.506;9.050;2024-02-15T14:27:33;1.15;;;1.00;;
13487;SDS011;6816;48.506;9.050;2024-02-15T14:30:34;3.05;;;1.27;;
13487;SDS011;6816;48.506;9.050;2024-02-15T14:33:54;1.95;;;1.10;;
13487;SDS011;6816;48.506;9.050;2024-02-15T14:36:54;2.03;;;0.95;;
13487;SDS011;6816;48.506;9.050;2024-02-15T14:39:55;2.30;;;0.95;;
13487;SDS011;6816;48.506;9.050;2024-02-15T14:42:56;1.25;;;1.13;;
13487;SDS011;6816;48.506;9.050;2024-02-15T14:45:57;1.75;;;1.15;;
13487;SDS011;6816;48.506;9.050;2024-02-15T14:48:59;1.20;;;1.10;;
13487;SDS011;6816;48.506;9.050;2024-02-15T14:51:59;1.60;;;1.42;;
13487;SDS011;6816;48.506;9.050;2024-02-15T14:55:01;1.50;;;1.20;;
13487;SDS011;6816;48.506;9.050;2024-02-15T14:58:08;1.40;;;1.13;;
13487;SDS011;6816;48.506;9.050;2024-02-15T15:01:09;2.42;;;1.02;;
13487;SDS011;6816;48.506;9.050;2024-02-15T15:04:10;2.28;;;1.30;;
13487;SDS011;6816;48.506;9.050;2024-02-15T15:07:11;1.83;;;1.25;;
13487;SDS011;6816;48.506;9.050;2024-02-15T15:10:30;2.88;;;1.13;;
13487;SDS011;6816;48.506;9.050;2024-02-15T15:13:49;1.85;;;1.30;;
13487;SDS011;6816;48.506;9.050;2024-02-15T15:16:51;2.05;;;1.30;;
13487;SDS011;6816;48.506;9.050;2024-02-15T15:19:52;1.13;;;1.02;;
13487;SDS011;6816;48.506;9.050;2024-02-15T15:22:53;1.67;;;1.15;;
13487;SDS011;6816;48.506;9.050;2024-02-15T15:25:55;1.88;;;1.42;;
13487;SDS011;6816;48.506;9.050;2024-02-15T15:28:56;2.03;;;1.10;;
13487;SDS011;6816;48.506;9.050;2024-02-15T15:31:58;1.10;;;1.00;;
13487;SDS011;6816;48.506;9.050;2024-02-15T15:35:00;2.17;;;1.10;;
13487;SDS011;6816;48.506;9.050;2024-02-15T15:38:00;1.90;;;1.30;;
13487;SDS011;6816;48.506;9.050;2024-02-15T15:41:01;1.77;;;1.10;;
13487;SDS011;6816;48.506;9.050;2024-02-15T15:44:03;2.80;;;1.13;;
13487;SDS011;6816;48.506;9.050;2024-02-15T15:47:04;1.97;;;1.43;;
13487;SDS011;6816;48.506;9.050;2024-02-15T15:50:05;2.17;;;1.27;;
13487;SDS011;6816;48.506;9.050;2024-02-15T15:53:06;1.40;;;1.30;;
13487;SDS011;6816;48.506;9.050;2024-02-15T15:56:07;2.10;;;1.40;;
13487;SDS011;6816;48.506;9.050;2024-02-15T15:59:07;2.40;;;1.10;;
13487;SDS011;6816;48.506;9.050;2024-02-15T16:02:08;4.97;;;1.25;;
13487;SDS011;6816;48.506;9.050;2024-02-15T16:05:09;2.00;;;1.20;;
13487;SDS011;6816;48.506;9.050;2024-02-15T16:08:12;4.00;;;1.23;;
13487;SDS011;6816;48.506;9.050;2024-02-15T16:11:13;2.50;;;1.30;;
13487;SDS011;6816;48.506;9.050;2024-02-15T16:14:16;3.50;;;1.43;;
13487;SDS011;6816;48.506;9.050;2024-02-15T16:17:17;2.03;;;1.03;;
13487;SDS011;6816;48.506;9.050;2024-02-15T16:20:18;4.70;;;1.60;;
13487;SDS011;6816;48.506;9.050;2024-02-15T16:23:18;2.83;;;1.10;;
13487;SDS011;6816;48.506;9.050;2024-02-15T16:26:19;2.47;;;1.47;;
13487;SDS011;6816;48.506;9.050;2024-02-15T16:29:21;2.77;;;1.30;;
13487;SDS011;6816;48.506;9.050;2024-02-15T16:32:21;1.93;;;1.20;;
13487;SDS011;6816;48.506;9.050;2024-02-15T16:35:22;2.47;;;1.23;;
13487;SDS011;6816;48.506;9.050;2024-02-15T16:38:23;1.30;;;1.20;;
13487;SDS011;6816;48.506;9.050;2024-02-15T16:41:23;2.33;;;1.00;;
13487;SDS011;6816;48.506;9.050;2024-02-15T16:44:25;1.57;;;1.00;;
13487;SDS011;6816;48.506;9.050;2024-02-15T16:47:25;2.40;;;1.00;;
13487;SDS011;6816;48.506;9.050;2024-02-15T16:50:26;2.63;;;1.40;;
13487;SDS011;6816;48.506;9.050;2024-02-15T16:53:26;1.37;;;0.90;;
13487;SDS011;6816;48.506;9.050;2024-02-15T16:56:27;4.47;;;1.30;;
13487;SDS011;6816;48.506;9.050;2024-02-15T16:59:30;2.60;;;1.03;;
13487;SDS011;6816;48.506;9.050;2024-02-15T17:02:34;2.47;;;1.10;;
13487;SDS011;6816;48.506;9.050;2024-02-15T17:05:38;2.40;;;1.10;;
13487;SDS011;6816;48.506;9.050;2024-02-15T17:08:41;1.43;;;1.07;;
13487;SDS011;6816;48.506;9.050;2024-02-15T17:11:41;1.37;;;0.90;;
13487;SDS011;6816;48.506;9.050;2024-02-15T17:14:42;1.77;;;1.17;;
13487;SDS011;6816;48.506;9.050;2024-02-15T17:17:42;2.27;;;1.13;;
13487;SDS011;6816;48.506;9.050;2024-02-15T17:20:43;1.70;;;1.20;;
13487;SDS011;6816;48.506;9.050;2024-02-15T17:23:44;2.37;;;1.40;;
13487;SDS011;6816;48.506;9.050;2024-02-15T17:26:46;3.77;;;1.87;;
13487;SDS011;6816;48.506;9.050;2024-02-15T17:29:46;3.70;;;1.67;;
13487;SDS011;6816;48.506;9.050;2024-02-15T17:32:47;2.10;;;1.17;;
13487;SDS011;6816;48.506;9.050;2024-02-15T17:35:48;1.80;;;1.40;;
13487;SDS011;6816;48.506;9.050;2024-02-15T17:38:53;2.90;;;1.70;;
13487;SDS011;6816;48.506;9.050;2024-02-15T17:41:53;1.87;;;1.17;;
13487;SDS011;6816;48.506;9.050;2024-02-15T17:44:54;2.90;;;1.70;;
13487;SDS011;6816;48.506;9.050;2024-02-15T17:47:55;4.03;;;1.57;;
13487;SDS011;6816;48.506;9.050;2024-02-15T17:50:55;5.10;;;1.70;;
13487;SDS011;6816;48.506;9.050;2024-02-15T17:53:56;3.73;;;1.60;;
13487;SDS011;6816;48.506;9.050;2024-02-15T17:56:58;4.17;;;1.83;;
13487;SDS011;6816;48.506;9.050;2024-02-15T18:00:00;6.07;;;2.07;;
13487;SDS011;6816;48.506;9.050;2024-02-15T18:03:00;4.03;;;2.10;;
13487;SDS011;6816;48.506;9.050;2024-02-15T18:06:01;3.00;;;1.93;;
13487;SDS011;6816;48.506;9.050;2024-02-15T18:09:02;2.60;;;1.87;;
13487;SDS011;6816;48.506;9.050;2024-02-15T18:12:02;2.93;;;1.63;;
13487;SDS011;6816;48.506;9.050;2024-02-15T18:15:03;2.97;;;1.77;;
13487;SDS011;6816;48.506;9.050;2024-02-15T18:18:05;4.63;;;1.87;;
13487;SDS011;6816;48.506;9.050;2024-02-15T18:21:07;3.33;;;1.73;;
13487;SDS011;6816;48.506;9.050;2024-02-15T18:24:08;3.53;;;1.77;;
13487;SDS011;6816;48.506;9.050;2024-02-15T18:27:12;5.37;;;2.27;;
13487;SDS011;6816;48.506;9.050;2024-02-15T18:30:12;5.47;;;2.83;;
13487;SDS011;6816;48.506;9.050;2024-02-15T18:33:17;4.83;;;2.50;;
13487;SDS011;6816;48.506;9.050;2024-02-15T18:36:18;4.40;;;2.70;;
13487;SDS011;6816;48.506;9.050;2024-02-15T18:39:19;5.77;;;3.20;;